sensor_id;sensor_type;location;lat;lon;timestamp;P1;durP1;ratioP1;P2;durP2;ratioP2
56712;SDS011;42589;45.536;9.032;2023-02-17T00:00:45;30.42;;;24.95;;
56712;SDS011;42589;45.536;9.032;2023-02-17T00:03:46;29.83;;;24.65;;
56712;SDS011;42589;45.536;9.032;2023-02-17T00:06:48;30.85;;;24.65;;
56712;SDS011;42589;45.536;9.032;2023-02-17T00:09:49;31.20;;;24.40;;
56712;SDS011;42589;45.536;9.032;2023-02-17T00:12:50;33.65;;;25.63;;
56712;SDS011;42589;45.536;9.032;2023-02-17T00:15:52;35.22;;;26.45;;
56712;SDS011;42589;45.536;9.032;2023-02-17T00:18:54;33.28;;;26.17;;
56712;SDS011;42589;45.536;9.032;2023-02-17T00:21:58;32.08;;;26.58;;
56712;SDS011;42589;45.536;9.032;2023-02-17T00:25:01;33.33;;;26.45;;
56712;SDS011;42589;45.536;9.032;2023-02-17T00:28:02;31.67;;;24.50;;
56712;SDS011;42589;45.536;9.032;2023-02-17T00:31:09;36.72;;;25.90;;
56712;SDS011;42589;45.536;9.032;2023-02-17T00:34:13;34.88;;;26.13;;
56712;SDS011;42589;45.536;9.032;2023-02-17T00:37:16;34.20;;;25.52;;
56712;SDS011;42589;45.536;9.032;2023-02-17T00:40:17;34.70;;;25.27;;
56712;SDS011;42589;45.536;9.032;2023-02-17T00:43:18;35.15;;;25.88;;
56712;SDS011;42589;45.536;9.032;2023-02-17T00:46:20;36.30;;;27.38;;
56712;SDS011;42589;45.536;9.032;2023-02-17T00:49:21;31.55;;;25.80;;
56712;SDS011;42589;45.536;9.032;2023-02-17T00:52:23;33.17;;;25.30;;
56712;SDS011;42589;45.536;9.032;2023-02-17T00:55:25;33.20;;;25.38;;
56712;SDS011;42589;45.536;9.032;2023-02-17T00:58:26;35.47;;;26.67;;
56712;SDS011;42589;45.536;9.032;2023-02-17T01:01:30;35.10;;;27.48;;
56712;SDS011;42589;45.536;9.032;2023-02-17T01:04:32;34.88;;;25.75;;
56712;SDS011;42589;45.536;9.032;2023-02-17T01:07:34;34.40;;;26.33;;
56712;SDS011;42589;45.536;9.032;2023-02-17T01:10:36;31.42;;;25.48;;
56712;SDS011;42589;45.536;9.032;2023-02-17T01:13:41;32.40;;;25.52;;
56712;SDS011;42589;45.536;9.032;2023-02-17T01:16:44;36.08;;;26.02;;
56712;SDS011;42589;45.536;9.032;2023-02-17T01:19:46;40.13;;;27.70;;
56712;SDS011;42589;45.536;9.032;2023-02-17T01:22:48;34.97;;;26.83;;
56712;SDS011;42589;45.536;9.032;2023-02-17T01:25:48;32.67;;;26.20;;
56712;SDS011;42589;45.536;9.032;2023-02-17T01:28:49;34.00;;;26.50;;
56712;SDS011;42589;45.536;9.032;2023-02-17T01:31:51;32.78;;;26.83;;
56712;SDS011;42589;45.536;9.032;2023-02-17T01:34:52;34.63;;;25.70;;
56712;SDS011;42589;45.536;9.032;2023-02-17T01:37:54;34.10;;;25.63;;
56712;SDS011;42589;45.536;9.032;2023-02-17T01:40:59;31.77;;;24.85;;
56712;SDS011;42589;45.536;9.032;2023-02-17T01:47:19;31.73;;;25.70;;
56712;SDS011;42589;45.536;9.032;2023-02-17T01:50:21;33.15;;;25.75;;
56712;SDS011;42589;45.536;9.032;2023-02-17T01:53:30;34.78;;;26.23;;
56712;SDS011;42589;45.536;9.032;2023-02-17T01:56:37;33.72;;;25.75;;
56712;SDS011;42589;45.536;9.032;2023-02-17T01:59:41;36.85;;;24.58;;
56712;SDS011;42589;45.536;9.032;2023-02-17T02:02:43;31.10;;;25.58;;
56712;SDS011;42589;45.536;9.032;2023-02-17T02:05:46;35.00;;;25.98;;
56712;SDS011;42589;45.536;9.032;2023-02-17T02:11:54;33.80;;;25.65;;
56712;SDS011;42589;45.536;9.032;2023-02-17T02:14:57;33.13;;;26.52;;
56712;SDS011;42589;45.536;9.032;2023-02-17T02:18:19;35.47;;;26.42;;
56712;SDS011;42589;45.536;9.032;2023-02-17T02:21:32;34.45;;;26.02;;
56712;SDS011;42589;45.536;9.032;2023-02-17T02:28:52;32.97;;;25.43;;
56712;SDS011;42589;45.536;9.032;2023-02-17T02:35:00;36.60;;;26.70;;
56712;SDS011;42589;45.536;9.032;2023-02-17T02:41:51;37.92;;;26.70;;
56712;SDS011;42589;45.536;9.032;2023-02-17T02:44:58;38.35;;;27.17;;
56712;SDS011;42589;45.536;9.032;2023-02-17T02:48:00;35.10;;;26.80;;
56712;SDS011;42589;45.536;9.032;2023-02-17T02:54:17;36.92;;;25.45;;
56712;SDS011;42589;45.536;9.032;2023-02-17T03:00:48;35.13;;;24.67;;
56712;SDS011;42589;45.536;9.032;2023-02-17T03:07:37;38.85;;;26.05;;
56712;SDS011;42589;45.536;9.032;2023-02-17T03:10:46;34.78;;;26.48;;
56712;SDS011;42589;45.536;9.032;2023-02-17T03:13:49;34.03;;;26.50;;
56712;SDS011;42589;45.536;9.032;2023-02-17T03:16:50;36.13;;;26.77;;
56712;SDS011;42589;45.536;9.032;2023-02-17T03:19:51;39.72;;;26.60;;
56712;SDS011;42589;45.536;9.032;2023-02-17T03:22:52;38.83;;;25.90;;
56712;SDS011;42589;45.536;9.032;2023-02-17T03:25:53;32.92;;;25.98;;
56712;SDS011;42589;45.536;9.032;2023-02-17T03:28:54;35.95;;;26.52;;
56712;SDS011;42589;45.536;9.032;2023-02-17T03:31:56;36.50;;;27.67;;
56712;SDS011;42589;45.536;9.032;2023-02-17T03:34:57;39.38;;;28.02;;
56712;SDS011;42589;45.536;9.032;2023-02-17T03:37:57;34.10;;;27.20;;
56712;SDS011;42589;45.536;9.032;2023-02-17T03:40:58;36.78;;;27.48;;
56712;SDS011;42589;45.536;9.032;2023-02-17T03:43:59;37.25;;;27.40;;
56712;SDS011;42589;45.536;9.032;2023-02-17T03:46:59;38.00;;;27.38;;
56712;SDS011;42589;45.536;9.032;2023-02-17T03:50:03;38.83;;;28.05;;
56712;SDS011;42589;45.536;9.032;2023-02-17T03:53:05;38.78;;;27.33;;
56712;SDS011;42589;45.536;9.032;2023-02-17T03:56:07;39.63;;;27.85;;
56712;SDS011;42589;45.536;9.032;2023-02-17T03:59:08;40.80;;;28.35;;
56712;SDS011;42589;45.536;9.032;2023-02-17T04:02:08;36.47;;;27.85;;
56712;SDS011;42589;45.536;9.032;2023-02-17T04:05:10;37.38;;;28.15;;
56712;SDS011;42589;45.536;9.032;2023-02-17T04:08:11;40.58;;;27.10;;
56712;SDS011;42589;45.536;9.032;2023-02-17T04:11:12;39.67;;;28.48;;
56712;SDS011;42589;45.536;9.032;2023-02-17T04:14:13;35.33;;;26.88;;
56712;SDS011;42589;45.536;9.032;2023-02-17T04:17:13;35.53;;;26.67;;
56712;SDS011;42589;45.536;9.032;2023-02-17T04:20:17;38.57;;;27.47;;
56712;SDS011;42589;45.536;9.032;2023-02-17T04:23:18;36.95;;;27.83;;
56712;SDS011;42589;45.536;9.032;2023-02-17T04:26:19;36.60;;;27.42;;
56712;SDS011;42589;45.536;9.032;2023-02-17T04:29:20;37.00;;;28.55;;
56712;SDS011;42589;45.536;9.032;2023-02-17T04:32:22;37.88;;;27.70;;
56712;SDS011;42589;45.536;9.032;2023-02-17T04:35:43;36.13;;;28.05;;
56712;SDS011;42589;45.536;9.032;2023-02-17T04:38:44;40.85;;;28.25;;
56712;SDS011;42589;45.536;9.032;2023-02-17T04:41:45;36.17;;;26.98;;
56712;SDS011;42589;45.536;9.032;2023-02-17T04:44:46;38.30;;;27.88;;
56712;SDS011;42589;45.536;9.032;2023-02-17T04:47:46;38.35;;;27.98;;
56712;SDS011;42589;45.536;9.032;2023-02-17T04:50:47;36.80;;;28.13;;
56712;SDS011;42589;45.536;9.032;2023-02-17T04:53:48;37.75;;;27.10;;
56712;SDS011;42589;45.536;9.032;2023-02-17T04:56:49;38.88;;;28.05;;
56712;SDS011;42589;45.536;9.032;2023-02-17T04:59:51;39.00;;;29.38;;
56712;SDS011;42589;45.536;9.032;2023-02-17T05:02:53;37.22;;;27.42;;
56712;SDS011;42589;45.536;9.032;2023-02-17T05:05:54;39.28;;;30.05;;
56712;SDS011;42589;45.536;9.032;2023-02-17T05:08:55;41.05;;;28.20;;
56712;SDS011;42589;45.536;9.032;2023-02-17T05:11:55;39.88;;;28.75;;
56712;SDS011;42589;45.536;9.032;2023-02-17T05:14:57;38.08;;;27.90;;
56712;SDS011;42589;45.536;9.032;2023-02-17T05:17:58;40.25;;;30.38;;
56712;SDS011;42589;45.536;9.032;2023-02-17T05:20:59;39.65;;;29.40;;
56712;SDS011;42589;45.536;9.032;2023-02-17T05:24:00;37.88;;;29.13;;
56712;SDS011;42589;45.536;9.032;2023-02-17T05:27:01;41.97;;;29.88;;
56712;SDS011;42589;45.536;9.032;2023-02-17T05:30:03;41.85;;;31.15;;
56712;SDS011;42589;45.536;9.032;2023-02-17T05:33:04;39.50;;;28.50;;
56712;SDS011;42589;45.536;9.032;2023-02-17T05:36:06;40.08;;;30.73;;
56712;SDS011;42589;45.536;9.032;2023-02-17T05:39:08;40.53;;;29.95;;
56712;SDS011;42589;45.536;9.032;2023-02-17T05:42:09;41.28;;;30.48;;
56712;SDS011;42589;45.536;9.032;2023-02-17T05:45:10;39.35;;;29.50;;
56712;SDS011;42589;45.536;9.032;2023-02-17T05:48:11;40.47;;;29.08;;
56712;SDS011;42589;45.536;9.032;2023-02-17T05:51:13;44.15;;;30.70;;
56712;SDS011;42589;45.536;9.032;2023-02-17T05:54:16;39.80;;;29.98;;
56712;SDS011;42589;45.536;9.032;2023-02-17T05:57:17;41.70;;;31.13;;
56712;SDS011;42589;45.536;9.032;2023-02-17T06:00:18;42.80;;;30.77;;
56712;SDS011;42589;45.536;9.032;2023-02-17T06:03:20;41.92;;;29.85;;
56712;SDS011;42589;45.536;9.032;2023-02-17T06:06:21;42.70;;;31.33;;
56712;SDS011;42589;45.536;9.032;2023-02-17T06:09:21;42.60;;;30.92;;
56712;SDS011;42589;45.536;9.032;2023-02-17T06:12:22;42.25;;;30.90;;
56712;SDS011;42589;45.536;9.032;2023-02-17T06:15:23;42.17;;;29.88;;
56712;SDS011;42589;45.536;9.032;2023-02-17T06:18:24;41.88;;;31.00;;
56712;SDS011;42589;45.536;9.032;2023-02-17T06:21:26;44.70;;;31.63;;
56712;SDS011;42589;45.536;9.032;2023-02-17T06:24:27;40.88;;;30.25;;
56712;SDS011;42589;45.536;9.032;2023-02-17T06:27:28;44.67;;;34.05;;
56712;SDS011;42589;45.536;9.032;2023-02-17T06:30:29;46.25;;;33.88;;
56712;SDS011;42589;45.536;9.032;2023-02-17T06:33:30;48.03;;;34.40;;
56712;SDS011;42589;45.536;9.032;2023-02-17T06:36:31;46.50;;;33.58;;
56712;SDS011;42589;45.536;9.032;2023-02-17T06:39:31;44.58;;;32.88;;
56712;SDS011;42589;45.536;9.032;2023-02-17T06:42:32;43.80;;;30.80;;
56712;SDS011;42589;45.536;9.032;2023-02-17T06:45:33;45.65;;;32.90;;
56712;SDS011;42589;45.536;9.032;2023-02-17T06:48:34;48.10;;;33.05;;
56712;SDS011;42589;45.536;9.032;2023-02-17T06:51:36;45.58;;;32.47;;
56712;SDS011;42589;45.536;9.032;2023-02-17T06:54:37;45.20;;;31.88;;
56712;SDS011;42589;45.536;9.032;2023-02-17T06:57:38;46.20;;;31.70;;
56712;SDS011;42589;45.536;9.032;2023-02-17T07:00:39;45.10;;;32.10;;
56712;SDS011;42589;45.536;9.032;2023-02-17T07:03:40;45.55;;;32.55;;
56712;SDS011;42589;45.536;9.032;2023-02-17T07:06:42;47.30;;;32.83;;
56712;SDS011;42589;45.536;9.032;2023-02-17T07:09:42;46.67;;;32.78;;
56712;SDS011;42589;45.536;9.032;2023-02-17T07:12:43;47.58;;;31.85;;
56712;SDS011;42589;45.536;9.032;2023-02-17T07:15:44;50.20;;;32.20;;
56712;SDS011;42589;45.536;9.032;2023-02-17T07:18:46;46.85;;;34.45;;
56712;SDS011;42589;45.536;9.032;2023-02-17T07:21:47;47.25;;;34.13;;
56712;SDS011;42589;45.536;9.032;2023-02-17T07:24:49;45.40;;;32.90;;
56712;SDS011;42589;45.536;9.032;2023-02-17T07:27:50;51.13;;;35.10;;
56712;SDS011;42589;45.536;9.032;2023-02-17T07:30:51;42.65;;;32.67;;
56712;SDS011;42589;45.536;9.032;2023-02-17T07:33:53;47.90;;;34.10;;
56712;SDS011;42589;45.536;9.032;2023-02-17T07:36:54;46.97;;;33.50;;
56712;SDS011;42589;45.536;9.032;2023-02-17T07:39:56;51.25;;;34.22;;
56712;SDS011;42589;45.536;9.032;2023-02-17T07:42:58;48.72;;;32.70;;
56712;SDS011;42589;45.536;9.032;2023-02-17T07:46:03;53.63;;;35.10;;
56712;SDS011;42589;45.536;9.032;2023-02-17T07:49:08;43.00;;;32.45;;
56712;SDS011;42589;45.536;9.032;2023-02-17T07:52:09;50.53;;;34.28;;
56712;SDS011;42589;45.536;9.032;2023-02-17T07:55:11;50.97;;;34.80;;
56712;SDS011;42589;45.536;9.032;2023-02-17T07:58:13;50.17;;;34.65;;
56712;SDS011;42589;45.536;9.032;2023-02-17T08:01:21;48.47;;;35.15;;
56712;SDS011;42589;45.536;9.032;2023-02-17T08:04:23;57.08;;;37.60;;
56712;SDS011;42589;45.536;9.032;2023-02-17T08:07:24;57.15;;;39.38;;
56712;SDS011;42589;45.536;9.032;2023-02-17T08:10:25;60.17;;;41.50;;
56712;SDS011;42589;45.536;9.032;2023-02-17T08:13:45;60.63;;;42.58;;
56712;SDS011;42589;45.536;9.032;2023-02-17T08:16:46;94.88;;;46.17;;
56712;SDS011;42589;45.536;9.032;2023-02-17T08:19:48;91.78;;;47.10;;
56712;SDS011;42589;45.536;9.032;2023-02-17T08:22:49;84.85;;;44.75;;
56712;SDS011;42589;45.536;9.032;2023-02-17T08:25:50;65.38;;;44.38;;
56712;SDS011;42589;45.536;9.032;2023-02-17T08:28:51;64.38;;;44.85;;
56712;SDS011;42589;45.536;9.032;2023-02-17T08:31:51;65.63;;;45.13;;
56712;SDS011;42589;45.536;9.032;2023-02-17T08:34:55;62.05;;;43.35;;
56712;SDS011;42589;45.536;9.032;2023-02-17T08:37:56;67.28;;;44.42;;
56712;SDS011;42589;45.536;9.032;2023-02-17T08:40:57;65.70;;;45.03;;
56712;SDS011;42589;45.536;9.032;2023-02-17T08:43:59;63.75;;;42.80;;
56712;SDS011;42589;45.536;9.032;2023-02-17T08:47:01;62.00;;;42.13;;
56712;SDS011;42589;45.536;9.032;2023-02-17T08:50:04;60.00;;;42.88;;
56712;SDS011;42589;45.536;9.032;2023-02-17T08:53:07;61.63;;;42.25;;
56712;SDS011;42589;45.536;9.032;2023-02-17T08:56:08;62.25;;;44.45;;
56712;SDS011;42589;45.536;9.032;2023-02-17T08:59:09;61.60;;;43.45;;
56712;SDS011;42589;45.536;9.032;2023-02-17T09:02:13;57.72;;;42.47;;
56712;SDS011;42589;45.536;9.032;2023-02-17T09:05:14;59.03;;;41.65;;
56712;SDS011;42589;45.536;9.032;2023-02-17T09:08:16;58.35;;;42.85;;
56712;SDS011;42589;45.536;9.032;2023-02-17T09:11:17;55.55;;;40.50;;
56712;SDS011;42589;45.536;9.032;2023-02-17T09:14:19;56.65;;;40.95;;
56712;SDS011;42589;45.536;9.032;2023-02-17T09:17:22;55.58;;;39.15;;
56712;SDS011;42589;45.536;9.032;2023-02-17T09:20:24;46.65;;;35.80;;
56712;SDS011;42589;45.536;9.032;2023-02-17T09:23:25;49.20;;;36.22;;
56712;SDS011;42589;45.536;9.032;2023-02-17T09:26:26;50.75;;;36.38;;
56712;SDS011;42589;45.536;9.032;2023-02-17T09:29:28;53.05;;;37.53;;
56712;SDS011;42589;45.536;9.032;2023-02-17T09:32:29;49.17;;;36.05;;
56712;SDS011;42589;45.536;9.032;2023-02-17T09:35:30;48.28;;;34.60;;
56712;SDS011;42589;45.536;9.032;2023-02-17T09:38:31;46.17;;;35.47;;
56712;SDS011;42589;45.536;9.032;2023-02-17T09:42:05;45.65;;;32.88;;
56712;SDS011;42589;45.536;9.032;2023-02-17T09:45:42;44.25;;;34.22;;
56712;SDS011;42589;45.536;9.032;2023-02-17T09:48:29;46.55;;;34.55;;
56712;SDS011;42589;45.536;9.032;2023-02-17T10:01:37;45.83;;;33.63;;
56712;SDS011;42589;45.536;9.032;2023-02-17T10:04:40;46.05;;;33.13;;
56712;SDS011;42589;45.536;9.032;2023-02-17T10:07:47;41.20;;;31.85;;
56712;SDS011;42589;45.536;9.032;2023-02-17T10:11:03;40.60;;;30.38;;
56712;SDS011;42589;45.536;9.032;2023-02-17T10:17:36;44.67;;;31.47;;
56712;SDS011;42589;45.536;9.032;2023-02-17T10:20:58;36.83;;;28.48;;
56712;SDS011;42589;45.536;9.032;2023-02-17T10:24:04;39.35;;;27.70;;
56712;SDS011;42589;45.536;9.032;2023-02-17T10:27:10;34.78;;;26.45;;
56712;SDS011;42589;45.536;9.032;2023-02-17T10:30:18;33.80;;;26.48;;
56712;SDS011;42589;45.536;9.032;2023-02-17T10:33:44;36.03;;;25.98;;
56712;SDS011;42589;45.536;9.032;2023-02-17T10:40:16;35.50;;;26.00;;
56712;SDS011;42589;45.536;9.032;2023-02-17T10:43:23;32.67;;;25.30;;
56712;SDS011;42589;45.536;9.032;2023-02-17T10:46:29;38.67;;;26.38;;
56712;SDS011;42589;45.536;9.032;2023-02-17T10:49:33;29.70;;;23.45;;
56712;SDS011;42589;45.536;9.032;2023-02-17T10:52:39;33.30;;;24.73;;
56712;SDS011;42589;45.536;9.032;2023-02-17T10:58:47;38.38;;;25.05;;
56712;SDS011;42589;45.536;9.032;2023-02-17T11:01:59;32.88;;;23.85;;
56712;SDS011;42589;45.536;9.032;2023-02-17T11:05:19;34.55;;;25.05;;
56712;SDS011;42589;45.536;9.032;2023-02-17T11:08:38;33.25;;;25.95;;
56712;SDS011;42589;45.536;9.032;2023-02-17T11:11:48;33.70;;;25.27;;
56712;SDS011;42589;45.536;9.032;2023-02-17T11:14:56;35.20;;;26.00;;
56712;SDS011;42589;45.536;9.032;2023-02-17T11:17:59;31.23;;;24.25;;
56712;SDS011;42589;45.536;9.032;2023-02-17T11:21:09;34.30;;;25.30;;
56712;SDS011;42589;45.536;9.032;2023-02-17T11:24:11;31.50;;;24.83;;
56712;SDS011;42589;45.536;9.032;2023-02-17T11:27:12;29.67;;;23.17;;
56712;SDS011;42589;45.536;9.032;2023-02-17T11:30:25;31.10;;;23.25;;
56712;SDS011;42589;45.536;9.032;2023-02-17T11:33:29;30.55;;;22.63;;
56712;SDS011;42589;45.536;9.032;2023-02-17T11:36:32;30.38;;;23.52;;
56712;SDS011;42589;45.536;9.032;2023-02-17T11:39:37;28.80;;;22.98;;
56712;SDS011;42589;45.536;9.032;2023-02-17T11:42:39;29.15;;;22.83;;
56712;SDS011;42589;45.536;9.032;2023-02-17T11:45:48;27.98;;;22.40;;
56712;SDS011;42589;45.536;9.032;2023-02-17T11:48:56;28.88;;;20.80;;
56712;SDS011;42589;45.536;9.032;2023-02-17T11:55:45;24.35;;;20.50;;
56712;SDS011;42589;45.536;9.032;2023-02-17T11:58:57;26.02;;;20.95;;
56712;SDS011;42589;45.536;9.032;2023-02-17T12:02:43;27.83;;;20.27;;
56712;SDS011;42589;45.536;9.032;2023-02-17T12:06:17;20.85;;;17.05;;
56712;SDS011;42589;45.536;9.032;2023-02-17T12:09:28;22.02;;;17.42;;
56712;SDS011;42589;45.536;9.032;2023-02-17T12:12:55;24.27;;;17.33;;
56712;SDS011;42589;45.536;9.032;2023-02-17T12:36:18;25.27;;;18.77;;
56712;SDS011;42589;45.536;9.032;2023-02-17T12:39:30;25.63;;;19.33;;
56712;SDS011;42589;45.536;9.032;2023-02-17T12:42:35;27.30;;;20.10;;
56712;SDS011;42589;45.536;9.032;2023-02-17T12:45:41;26.83;;;19.73;;
56712;SDS011;42589;45.536;9.032;2023-02-17T12:48:50;23.55;;;17.67;;
56712;SDS011;42589;45.536;9.032;2023-02-17T12:55:15;22.35;;;15.80;;
56712;SDS011;42589;45.536;9.032;2023-02-17T12:58:27;21.77;;;16.02;;
56712;SDS011;42589;45.536;9.032;2023-02-17T13:01:29;23.65;;;16.38;;
56712;SDS011;42589;45.536;9.032;2023-02-17T13:04:32;23.02;;;15.95;;
56712;SDS011;42589;45.536;9.032;2023-02-17T13:07:37;22.70;;;16.38;;
56712;SDS011;42589;45.536;9.032;2023-02-17T13:10:46;23.23;;;16.67;;
56712;SDS011;42589;45.536;9.032;2023-02-17T13:14:20;24.33;;;17.00;;
56712;SDS011;42589;45.536;9.032;2023-02-17T13:17:38;25.35;;;16.13;;
56712;SDS011;42589;45.536;9.032;2023-02-17T13:20:58;21.77;;;16.77;;
56712;SDS011;42589;45.536;9.032;2023-02-17T13:27:33;21.95;;;17.48;;
56712;SDS011;42589;45.536;9.032;2023-02-17T13:30:39;25.00;;;16.77;;
56712;SDS011;42589;45.536;9.032;2023-02-17T13:33:43;23.30;;;17.35;;
56712;SDS011;42589;45.536;9.032;2023-02-17T13:36:55;21.80;;;17.25;;
56712;SDS011;42589;45.536;9.032;2023-02-17T13:39:57;25.63;;;17.42;;
56712;SDS011;42589;45.536;9.032;2023-02-17T13:46:11;24.75;;;16.85;;
56712;SDS011;42589;45.536;9.032;2023-02-17T13:49:23;21.52;;;16.60;;
56712;SDS011;42589;45.536;9.032;2023-02-17T13:52:28;21.10;;;15.90;;
56712;SDS011;42589;45.536;9.032;2023-02-17T13:55:31;21.40;;;17.23;;
56712;SDS011;42589;45.536;9.032;2023-02-17T13:58:33;20.80;;;16.85;;
56712;SDS011;42589;45.536;9.032;2023-02-17T14:01:37;21.23;;;17.17;;
56712;SDS011;42589;45.536;9.032;2023-02-17T14:04:43;23.08;;;16.85;;
56712;SDS011;42589;45.536;9.032;2023-02-17T14:08:13;26.70;;;17.13;;
56712;SDS011;42589;45.536;9.032;2023-02-17T14:11:20;22.45;;;15.82;;
56712;SDS011;42589;45.536;9.032;2023-02-17T14:14:28;22.25;;;16.50;;
56712;SDS011;42589;45.536;9.032;2023-02-17T14:17:32;21.50;;;16.85;;
56712;SDS011;42589;45.536;9.032;2023-02-17T14:20:34;25.42;;;16.67;;
56712;SDS011;42589;45.536;9.032;2023-02-17T14:23:39;21.33;;;15.88;;
56712;SDS011;42589;45.536;9.032;2023-02-17T14:26:54;23.70;;;17.10;;
56712;SDS011;42589;45.536;9.032;2023-02-17T14:30:12;24.73;;;17.80;;
56712;SDS011;42589;45.536;9.032;2023-02-17T14:36:35;27.67;;;19.08;;
56712;SDS011;42589;45.536;9.032;2023-02-17T14:39:37;28.13;;;19.13;;
56712;SDS011;42589;45.536;9.032;2023-02-17T14:42:38;28.55;;;20.40;;
56712;SDS011;42589;45.536;9.032;2023-02-17T14:45:39;26.48;;;18.33;;
56712;SDS011;42589;45.536;9.032;2023-02-17T14:48:40;28.77;;;19.50;;
56712;SDS011;42589;45.536;9.032;2023-02-17T14:51:41;25.75;;;18.50;;
56712;SDS011;42589;45.536;9.032;2023-02-17T14:54:46;28.25;;;19.88;;
56712;SDS011;42589;45.536;9.032;2023-02-17T14:57:50;31.15;;;21.02;;
56712;SDS011;42589;45.536;9.032;2023-02-17T15:00:51;29.05;;;19.90;;
56712;SDS011;42589;45.536;9.032;2023-02-17T15:03:52;27.33;;;20.73;;
56712;SDS011;42589;45.536;9.032;2023-02-17T15:06:54;26.10;;;20.27;;
56712;SDS011;42589;45.536;9.032;2023-02-17T15:09:56;30.55;;;21.60;;
56712;SDS011;42589;45.536;9.032;2023-02-17T15:12:57;27.48;;;20.80;;
56712;SDS011;42589;45.536;9.032;2023-02-17T15:15:57;29.38;;;21.15;;
56712;SDS011;42589;45.536;9.032;2023-02-17T15:18:59;31.17;;;20.85;;
56712;SDS011;42589;45.536;9.032;2023-02-17T15:22:00;30.92;;;20.85;;
56712;SDS011;42589;45.536;9.032;2023-02-17T15:25:08;29.23;;;20.85;;
56712;SDS011;42589;45.536;9.032;2023-02-17T15:28:13;30.45;;;22.17;;
56712;SDS011;42589;45.536;9.032;2023-02-17T15:31:15;31.67;;;23.08;;
56712;SDS011;42589;45.536;9.032;2023-02-17T15:34:21;29.60;;;21.75;;
56712;SDS011;42589;45.536;9.032;2023-02-17T15:37:25;28.90;;;20.98;;
56712;SDS011;42589;45.536;9.032;2023-02-17T15:40:26;28.42;;;21.40;;
56712;SDS011;42589;45.536;9.032;2023-02-17T15:43:32;30.77;;;21.35;;
56712;SDS011;42589;45.536;9.032;2023-02-17T15:46:34;29.02;;;21.25;;
56712;SDS011;42589;45.536;9.032;2023-02-17T15:49:36;28.77;;;21.15;;
56712;SDS011;42589;45.536;9.032;2023-02-17T15:52:36;29.40;;;22.15;;
56712;SDS011;42589;45.536;9.032;2023-02-17T15:55:37;30.42;;;22.60;;
56712;SDS011;42589;45.536;9.032;2023-02-17T15:58:38;34.22;;;21.85;;
56712;SDS011;42589;45.536;9.032;2023-02-17T16:01:40;31.92;;;21.80;;
56712;SDS011;42589;45.536;9.032;2023-02-17T16:04:40;33.22;;;24.23;;
56712;SDS011;42589;45.536;9.032;2023-02-17T16:07:42;31.70;;;21.65;;
56712;SDS011;42589;45.536;9.032;2023-02-17T16:10:43;31.95;;;22.85;;
56712;SDS011;42589;45.536;9.032;2023-02-17T16:13:45;32.08;;;23.63;;
56712;SDS011;42589;45.536;9.032;2023-02-17T16:16:46;36.67;;;23.20;;
56712;SDS011;42589;45.536;9.032;2023-02-17T16:19:47;32.95;;;23.77;;
56712;SDS011;42589;45.536;9.032;2023-02-17T16:22:48;34.58;;;23.38;;
56712;SDS011;42589;45.536;9.032;2023-02-17T16:25:50;31.30;;;22.52;;
56712;SDS011;42589;45.536;9.032;2023-02-17T16:28:50;31.95;;;23.20;;
56712;SDS011;42589;45.536;9.032;2023-02-17T16:31:52;32.65;;;22.38;;
56712;SDS011;42589;45.536;9.032;2023-02-17T16:34:53;36.13;;;24.30;;
56712;SDS011;42589;45.536;9.032;2023-02-17T16:38:04;31.55;;;23.20;;
56712;SDS011;42589;45.536;9.032;2023-02-17T16:41:10;27.83;;;21.48;;
56712;SDS011;42589;45.536;9.032;2023-02-17T16:44:13;33.25;;;22.55;;
56712;SDS011;42589;45.536;9.032;2023-02-17T16:47:19;31.17;;;22.83;;
56712;SDS011;42589;45.536;9.032;2023-02-17T16:50:25;33.25;;;23.20;;
56712;SDS011;42589;45.536;9.032;2023-02-17T16:53:31;31.83;;;23.80;;
56712;SDS011;42589;45.536;9.032;2023-02-17T16:56:34;35.28;;;24.65;;
56712;SDS011;42589;45.536;9.032;2023-02-17T16:59:39;36.20;;;24.65;;
56712;SDS011;42589;45.536;9.032;2023-02-17T17:02:40;31.08;;;23.38;;
56712;SDS011;42589;45.536;9.032;2023-02-17T17:05:40;36.03;;;24.38;;
56712;SDS011;42589;45.536;9.032;2023-02-17T17:08:41;36.78;;;24.98;;
56712;SDS011;42589;45.536;9.032;2023-02-17T17:11:43;37.90;;;25.40;;
56712;SDS011;42589;45.536;9.032;2023-02-17T17:14:45;38.95;;;25.33;;
56712;SDS011;42589;45.536;9.032;2023-02-17T17:18:00;40.85;;;25.23;;
56712;SDS011;42589;45.536;9.032;2023-02-17T17:21:03;35.13;;;26.42;;
56712;SDS011;42589;45.536;9.032;2023-02-17T17:24:04;33.65;;;26.00;;
56712;SDS011;42589;45.536;9.032;2023-02-17T17:27:05;34.22;;;25.92;;
56712;SDS011;42589;45.536;9.032;2023-02-17T17:30:08;36.45;;;26.85;;
56712;SDS011;42589;45.536;9.032;2023-02-17T17:33:14;39.38;;;26.45;;
56712;SDS011;42589;45.536;9.032;2023-02-17T17:36:21;39.47;;;26.10;;
56712;SDS011;42589;45.536;9.032;2023-02-17T17:39:22;35.88;;;26.67;;
56712;SDS011;42589;45.536;9.032;2023-02-17T17:42:23;38.20;;;28.05;;
56712;SDS011;42589;45.536;9.032;2023-02-17T17:45:25;44.78;;;28.45;;
56712;SDS011;42589;45.536;9.032;2023-02-17T17:48:26;40.78;;;28.85;;
56712;SDS011;42589;45.536;9.032;2023-02-17T17:51:28;38.67;;;27.33;;
56712;SDS011;42589;45.536;9.032;2023-02-17T17:54:32;33.58;;;24.38;;
56712;SDS011;42589;45.536;9.032;2023-02-17T17:57:34;33.47;;;24.52;;
56712;SDS011;42589;45.536;9.032;2023-02-17T18:00:35;31.08;;;21.90;;
56712;SDS011;42589;45.536;9.032;2023-02-17T18:03:36;30.67;;;22.60;;
56712;SDS011;42589;45.536;9.032;2023-02-17T18:06:46;33.13;;;23.42;;
56712;SDS011;42589;45.536;9.032;2023-02-17T18:09:50;31.20;;;20.80;;
56712;SDS011;42589;45.536;9.032;2023-02-17T18:12:51;24.27;;;18.75;;
56712;SDS011;42589;45.536;9.032;2023-02-17T18:15:51;24.40;;;18.35;;
56712;SDS011;42589;45.536;9.032;2023-02-17T18:18:54;25.85;;;18.13;;
56712;SDS011;42589;45.536;9.032;2023-02-17T18:21:55;23.75;;;17.83;;
56712;SDS011;42589;45.536;9.032;2023-02-17T18:24:56;20.25;;;16.88;;
56712;SDS011;42589;45.536;9.032;2023-02-17T18:28:00;22.30;;;17.15;;
56712;SDS011;42589;45.536;9.032;2023-02-17T18:31:08;20.52;;;17.15;;
56712;SDS011;42589;45.536;9.032;2023-02-17T18:34:11;24.40;;;17.17;;
56712;SDS011;42589;45.536;9.032;2023-02-17T18:37:12;21.52;;;16.40;;
56712;SDS011;42589;45.536;9.032;2023-02-17T18:40:14;23.80;;;17.23;;
56712;SDS011;42589;45.536;9.032;2023-02-17T18:43:17;25.08;;;17.60;;
56712;SDS011;42589;45.536;9.032;2023-02-17T18:46:18;23.67;;;16.40;;
56712;SDS011;42589;45.536;9.032;2023-02-17T18:49:18;22.98;;;17.23;;
56712;SDS011;42589;45.536;9.032;2023-02-17T18:52:19;19.55;;;16.23;;
56712;SDS011;42589;45.536;9.032;2023-02-17T18:55:20;23.80;;;16.25;;
56712;SDS011;42589;45.536;9.032;2023-02-17T18:58:22;20.30;;;16.55;;
56712;SDS011;42589;45.536;9.032;2023-02-17T19:01:24;17.50;;;15.23;;
56712;SDS011;42589;45.536;9.032;2023-02-17T19:04:26;18.48;;;14.60;;
56712;SDS011;42589;45.536;9.032;2023-02-17T19:07:27;19.83;;;14.95;;
56712;SDS011;42589;45.536;9.032;2023-02-17T19:10:29;16.95;;;14.20;;
56712;SDS011;42589;45.536;9.032;2023-02-17T19:13:30;13.27;;;11.05;;
56712;SDS011;42589;45.536;9.032;2023-02-17T19:16:32;13.13;;;11.15;;
56712;SDS011;42589;45.536;9.032;2023-02-17T19:19:36;14.45;;;10.82;;